Strona główna
METAR-TAF:

METAR-TAF

Lotnisko :

Hillsdale Municipal Airport

Hillsdale, Michigan, Stany Zjednoczone

Szerokość geograficzna: 41-55-17N, Długość geograficzna: 084-35-09W, wysokość: 360 m

Aktualna obserwacja pogody

Raport powstał 13 minut temu, godzina 02:15 UTC
Cisza
Temperatura -4°C
Wilgotność 86%
Ciśnienie 1020 hPa
Widzialność: 16.1 km
bezchmurnie

METAR: KJYM 170215Z AUTO 00000KT 10SM CLR M04/M06 A3011 RMK AO2 T10401060

czas: 21:28 (02:28 UTC)


TAF: brakujący

Obserwacja i prognoza pogody dla ponad 4000 lotnisk (raport METAR i TAF).

Dostępne stacje oznaczono żółtymi i czerwonymi punktami na mapie.

Najedź kursorem aby zobaczyć nazwę stacji.

Kliknij aby zobaczyć obserwacje i prognozy pogody.

Aby zmienić mapę: kliknij na zielony przycisk z czarnym krzyżykiem, aby powiększyć; na zielony przycisk z myślnikiem, aby pomniejszyć; na zielone strzałki, aby przejść do map sąsiednich.


METAR-TAF: